Time;durP1;ratioP1;P1;durP2;ratioP2;P2;SDS_P1;SDS_P2;PMS_P1;PMS_P2;Temp;Humidity;BMP_temperature;BMP_pressure;BME280_temperature;BME280_humidity;BME280_pressure;Samples;Min_cycle;Max_cycle;Signal;HPM_P1;HPM_P2
2022/03/06 00:01:32;;;;;;;16.65;9.35;;;0.30;92.60;;;;;;4969035;28;20065;-56
2022/03/06 00:03:57;;;;;;;10.70;9.60;;;0.30;92.50;;;;;;4969542;28;20394;-56
2022/03/06 00:06:23;;;;;;;10.75;9.63;;;0.30;92.60;;;;;;4970005;28;20035;-57
2022/03/06 00:08:49;;;;;;;12.50;9.23;;;0.30;92.80;;;;;;4970077;28;20030;-56
2022/03/06 00:11:14;;;;;;;12.23;9.82;;;0.30;92.90;;;;;;4984514;28;20423;-54
2022/03/06 00:13:40;;;;;;;12.82;9.73;;;0.30;93.00;;;;;;4969822;28;20113;-56
2022/03/06 00:16:05;;;;;;;10.85;9.75;;;0.30;94.40;;;;;;4968975;28;20041;-56
2022/03/06 00:18:31;;;;;;;10.27;9.18;;;0.30;94.30;;;;;;4969856;28;20043;-57
2022/03/06 00:20:59;;;;;;;14.65;10.93;;;0.30;95.00;;;;;;4969060;28;20034;-55
2022/03/06 00:23:25;;;;;;;14.27;12.27;;;0.30;95.00;;;;;;4969994;28;20029;-56
2022/03/06 00:25:51;;;;;;;15.32;11.30;;;0.40;96.00;;;;;;4969074;28;20062;-57
2022/03/06 00:28:16;;;;;;;14.05;10.90;;;0.40;96.20;;;;;;4969229;28;20062;-56
2022/03/06 00:30:42;;;;;;;13.55;11.98;;;0.50;96.80;;;;;;4968800;28;20054;-56
2022/03/06 00:33:08;;;;;;;11.48;9.30;;;0.50;96.60;;;;;;4969073;28;20041;-56
2022/03/06 00:35:34;;;;;;;13.63;9.50;;;0.50;96.20;;;;;;4969409;28;20027;-54
2022/03/06 00:38:00;;;;;;;14.35;9.50;;;0.50;95.70;;;;;;4969646;28;20177;-54
2022/03/06 00:40:26;;;;;;;12.95;9.70;;;0.50;95.30;;;;;;4969865;28;20505;-56
2022/03/06 00:42:52;;;;;;;15.02;10.10;;;0.50;95.00;;;;;;4968678;28;20673;-56
2022/03/06 00:45:18;;;;;;;13.63;9.57;;;0.50;94.70;;;;;;4969423;28;20037;-55
2022/03/06 00:47:44;;;;;;;11.25;9.50;;;0.40;94.70;;;;;;4970824;28;20039;-55
2022/03/06 00:50:09;;;;;;;12.55;9.85;;;0.40;95.20;;;;;;4974038;28;20375;-57
2022/03/06 00:52:36;;;;;;;14.90;9.57;;;0.40;96.00;;;;;;4973259;28;20023;-57
2022/03/06 00:55:02;;;;;;;11.23;9.07;;;0.40;96.10;;;;;;4973009;28;20034;-55
2022/03/06 00:57:28;;;;;;;11.68;9.18;;;0.40;96.00;;;;;;4973229;28;20039;-55
2022/03/06 00:59:53;;;;;;;14.70;10.32;;;0.40;96.70;;;;;;4986936;28;20042;-57
2022/03/06 01:02:19;;;;;;;13.60;9.13;;;0.30;97.40;;;;;;4973208;28;20441;-57
2022/03/06 01:04:44;;;;;;;12.32;9.13;;;0.30;97.60;;;;;;4987500;28;20042;-56
2022/03/06 01:07:10;;;;;;;10.50;9.40;;;0.30;97.90;;;;;;4973081;28;20043;-55
2022/03/06 01:09:36;;;;;;;10.93;9.02;;;0.30;98.20;;;;;;4972667;28;20486;-55
2022/03/06 01:12:02;;;;;;;12.82;9.27;;;0.30;98.20;;;;;;4973057;28;20174;-56
2022/03/06 01:14:28;;;;;;;11.88;8.95;;;0.30;98.00;;;;;;4972777;28;20022;-56
2022/03/06 01:16:53;;;;;;;11.38;8.82;;;0.30;98.30;;;;;;4972716;28;20486;-57
2022/03/06 01:19:20;;;;;;;10.30;8.35;;;0.20;99.60;;;;;;4973064;28;20118;-55
2022/03/06 01:21:46;;;;;;;11.23;8.50;;;0.20;99.50;;;;;;4972063;28;20094;-55
2022/03/06 01:24:12;;;;;;;12.55;9.07;;;0.20;99.90;;;;;;4972914;28;20967;-56
2022/03/06 01:26:38;;;;;;;9.27;7.65;;;0.20;99.90;;;;;;4972203;28;20038;-57
2022/03/06 01:29:04;;;;;;;10.00;8.43;;;0.20;99.90;;;;;;4972407;28;20027;-55
2022/03/06 01:31:30;;;;;;;10.88;9.05;;;0.20;99.90;;;;;;4971315;28;20093;-55
2022/03/06 01:33:56;;;;;;;10.77;8.65;;;0.20;99.90;;;;;;4972691;28;20035;-56
2022/03/06 01:36:22;;;;;;;10.30;8.43;;;0.10;99.90;;;;;;4972672;28;20581;-55
2022/03/06 01:38:47;;;;;;;12.60;8.57;;;0.10;99.90;;;;;;4972178;28;20044;-56
2022/03/06 01:41:13;;;;;;;13.65;10.15;;;0.10;99.90;;;;;;4972852;28;20044;-57
2022/03/06 01:43:39;;;;;;;15.75;9.82;;;0.10;99.90;;;;;;4971574;28;20442;-57
2022/03/06 01:46:05;;;;;;;13.43;9.52;;;0.10;99.90;;;;;;4972457;28;20043;-56
2022/03/06 01:48:30;;;;;;;13.60;9.57;;;0.10;99.90;;;;;;4971898;28;20490;-56
2022/03/06 01:50:56;;;;;;;13.40;9.95;;;0.10;99.90;;;;;;4972429;28;20035;-54
2022/03/06 01:53:21;;;;;;;13.60;9.73;;;0.10;99.90;;;;;;4971996;28;20033;-56
2022/03/06 01:55:47;;;;;;;12.77;9.65;;;0.10;99.90;;;;;;4971927;28;20054;-57
2022/03/06 01:58:14;;;;;;;13.68;9.82;;;0.10;99.90;;;;;;4971576;28;20029;-56
2022/03/06 02:00:47;;;;;;;12.85;8.38;;;0.10;99.90;;;;;;4970762;28;20058;-56
2022/03/06 02:03:14;;;;;;;13.48;10.90;;;0.10;99.90;;;;;;4971759;28;20122;-57
2022/03/06 02:05:41;;;;;;;18.23;10.90;;;0.10;99.90;;;;;;4971582;28;20066;-55
2022/03/06 02:08:07;;;;;;;12.50;8.95;;;0.10;99.90;;;;;;4972367;28;20438;-57
2022/03/06 02:10:34;;;;;;;13.68;9.68;;;0.10;99.90;;;;;;4971396;28;20027;-57
2022/03/06 02:12:59;;;;;;;14.02;9.32;;;0.10;99.90;;;;;;4971389;28;20027;-56
2022/03/06 02:15:25;;;;;;;10.05;9.00;;;0.10;99.90;;;;;;4971360;28;20031;-55
2022/03/06 02:17:51;;;;;;;10.82;8.40;;;0.10;99.90;;;;;;4971243;28;20031;-56
2022/03/06 02:20:19;;;;;;;12.20;8.60;;;0.10;99.90;;;;;;4971713;28;20109;-56
2022/03/06 02:22:47;;;;;;;11.65;8.73;;;0.10;99.90;;;;;;4970828;28;20034;-57
2022/03/06 02:25:19;;;;;;;10.73;7.82;;;0.10;99.90;;;;;;4971275;28;20053;-56
2022/03/06 02:27:46;;;;;;;10.27;8.55;;;0.10;99.90;;;;;;4970469;28;20159;-56
2022/03/06 02:30:15;;;;;;;9.57;8.55;;;0.10;99.90;;;;;;4971805;28;20038;-57
2022/03/06 02:32:42;;;;;;;10.45;9.13;;;0.10;99.90;;;;;;4970800;28;20101;-57
2022/03/06 02:35:09;;;;;;;11.60;8.57;;;0.10;99.90;;;;;;4971974;28;20027;-54
2022/03/06 02:37:34;;;;;;;9.18;8.00;;;0.10;99.90;;;;;;4970994;28;20085;-55
2022/03/06 02:40:02;;;;;;;9.35;8.30;;;0.10;99.90;;;;;;4971412;28;20781;-54
2022/03/06 02:42:33;;;;;;;10.10;8.05;;;0.10;99.90;;;;;;4970613;28;20035;-57
2022/03/06 02:45:00;;;;;;;10.50;8.80;;;0.00;99.90;;;;;;4971112;28;20483;-54
2022/03/06 02:47:27;;;;;;;10.65;9.55;;;0.10;99.90;;;;;;4971055;28;20401;-57
2022/03/06 02:49:53;;;;;;;17.00;9.60;;;0.10;99.90;;;;;;4971180;28;20431;-56
2022/03/06 02:52:19;;;;;;;11.50;9.15;;;0.10;99.90;;;;;;4970693;28;20224;-57
2022/03/06 02:54:45;;;;;;;10.70;8.07;;;0.10;99.90;;;;;;4970689;28;20026;-56
2022/03/06 02:57:11;;;;;;;9.40;7.95;;;0.00;99.90;;;;;;4970594;28;20960;-56
2022/03/06 02:59:38;;;;;;;10.30;7.97;;;0.00;99.90;;;;;;4970454;28;20018;-54
2022/03/06 03:02:04;;;;;;;9.52;8.52;;;0.00;99.90;;;;;;4970822;28;20022;-56
2022/03/06 03:04:31;;;;;;;11.90;8.63;;;0.00;99.90;;;;;;4970467;28;20027;-57
2022/03/06 03:06:57;;;;;;;9.85;8.73;;;-0.10;99.90;;;;;;4970342;28;20071;-56
2022/03/06 03:09:22;;;;;;;11.20;8.38;;;-0.10;99.90;;;;;;4971153;28;20474;-55
2022/03/06 03:11:52;;;;;;;10.07;8.77;;;-0.10;99.90;;;;;;4970159;28;20023;-57
2022/03/06 03:14:18;;;;;;;10.48;8.25;;;-0.10;99.90;;;;;;4971284;28;20023;-55
2022/03/06 03:16:44;;;;;;;10.45;8.32;;;-0.20;99.90;;;;;;4970413;28;20023;-57
2022/03/06 03:19:10;;;;;;;11.88;8.85;;;-0.20;99.90;;;;;;4970854;28;20437;-56
2022/03/06 03:21:36;;;;;;;10.95;8.93;;;-0.20;99.90;;;;;;4969633;28;20027;-55
2022/03/06 03:24:02;;;;;;;10.23;8.77;;;-0.20;99.90;;;;;;4970974;28;20027;-56
2022/03/06 03:26:28;;;;;;;10.25;7.90;;;-0.30;99.90;;;;;;4970393;28;20078;-55
2022/03/06 03:28:54;;;;;;;19.52;9.55;;;-0.30;99.90;;;;;;4971428;28;20022;-57
2022/03/06 03:31:20;;;;;;;9.55;8.55;;;-0.30;99.90;;;;;;4969881;28;20037;-55
2022/03/06 03:33:46;;;;;;;10.52;8.85;;;-0.30;99.90;;;;;;4970190;28;20070;-56
2022/03/06 03:36:12;;;;;;;10.55;9.05;;;-0.30;99.90;;;;;;4970298;28;20043;-57
2022/03/06 03:38:39;;;;;;;11.25;9.07;;;-0.40;99.90;;;;;;4969773;28;20027;-56
2022/03/06 03:41:05;;;;;;;13.98;9.85;;;-0.40;99.90;;;;;;4970839;28;20033;-57
2022/03/06 03:43:31;;;;;;;10.35;8.80;;;-0.50;99.90;;;;;;4969735;28;20027;-55
2022/03/06 03:45:59;;;;;;;10.73;8.85;;;-0.50;99.90;;;;;;4970308;28;20026;-54
2022/03/06 03:48:26;;;;;;;10.65;9.23;;;-0.50;99.90;;;;;;4969796;28;20031;-55
2022/03/06 03:50:54;;;;;;;12.45;9.20;;;-0.50;99.90;;;;;;4970049;28;20085;-55
2022/03/06 03:53:20;;;;;;;11.75;9.02;;;-0.50;99.90;;;;;;4970049;28;20023;-56
2022/03/06 03:55:47;;;;;;;11.60;9.05;;;-0.60;99.90;;;;;;4970415;28;20031;-56
2022/03/06 03:58:13;;;;;;;13.63;10.32;;;-0.50;99.90;;;;;;4969980;28;20027;-57
2022/03/06 04:00:39;;;;;;;13.82;10.20;;;-0.50;99.90;;;;;;4969686;28;20036;-56
2022/03/06 04:03:05;;;;;;;17.33;10.52;;;-0.50;99.90;;;;;;4968423;28;20053;-56
2022/03/06 04:05:30;;;;;;;11.68;10.00;;;-0.50;99.90;;;;;;4969549;28;20058;-56
2022/03/06 04:07:56;;;;;;;13.00;9.65;;;-0.40;99.90;;;;;;4970540;28;20054;-57
2022/03/06 04:10:22;;;;;;;14.90;10.10;;;-0.40;99.90;;;;;;4969244;28;20077;-55
2022/03/06 04:12:47;;;;;;;14.45;10.80;;;-0.40;99.90;;;;;;4969186;28;20015;-57
2022/03/06 04:15:13;;;;;;;14.05;10.63;;;-0.30;99.90;;;;;;4968863;28;20031;-57
2022/03/06 04:17:38;;;;;;;16.75;11.38;;;-0.30;99.90;;;;;;4968954;28;20030;-57
2022/03/06 04:20:05;;;;;;;14.43;10.93;;;-0.20;99.90;;;;;;4969435;28;20035;-56
2022/03/06 04:22:30;;;;;;;20.08;10.77;;;-0.20;99.90;;;;;;4968703;28;20058;-55
2022/03/06 04:24:56;;;;;;;12.75;10.00;;;-0.10;99.90;;;;;;4969832;28;20054;-54
2022/03/06 04:27:22;;;;;;;11.93;10.20;;;-0.10;99.90;;;;;;4969021;28;20023;-56
2022/03/06 04:29:47;;;;;;;13.00;10.15;;;-0.10;99.90;;;;;;4970002;28;20023;-57
2022/03/06 04:32:13;;;;;;;13.32;9.85;;;-0.10;99.90;;;;;;4969390;28;20381;-56
2022/03/06 04:34:39;;;;;;;10.82;9.57;;;0.00;99.90;;;;;;4969605;28;20042;-56
2022/03/06 04:37:05;;;;;;;14.52;10.00;;;0.00;99.90;;;;;;4968943;28;20030;-57
2022/03/06 04:39:31;;;;;;;11.75;9.65;;;0.00;99.90;;;;;;4969837;28;20121;-54
2022/03/06 04:41:57;;;;;;;13.20;9.63;;;0.00;99.90;;;;;;4969564;28;20392;-56
2022/03/06 04:44:23;;;;;;;15.02;10.63;;;0.00;99.90;;;;;;4969747;28;20034;-57
2022/03/06 04:46:49;;;;;;;15.88;10.43;;;0.00;99.90;;;;;;4969331;28;20027;-55
2022/03/06 04:49:14;;;;;;;16.70;10.20;;;0.00;99.90;;;;;;4969275;28;20034;-57
2022/03/06 04:51:40;;;;;;;11.77;9.98;;;0.00;99.90;;;;;;4969872;28;20073;-56
2022/03/06 04:54:07;;;;;;;17.88;9.68;;;0.00;99.90;;;;;;4969028;28;20035;-55
2022/03/06 04:56:33;;;;;;;12.75;9.93;;;0.00;99.90;;;;;;4969463;28;20046;-57
2022/03/06 04:58:58;;;;;;;15.40;10.93;;;0.00;99.90;;;;;;4969906;28;20027;-57
2022/03/06 05:01:24;;;;;;;13.45;9.52;;;0.00;99.90;;;;;;4967647;28;20129;-55
2022/03/06 05:03:50;;;;;;;16.25;10.98;;;0.00;99.90;;;;;;4969833;28;20030;-55
2022/03/06 05:06:15;;;;;;;12.48;9.18;;;0.00;99.90;;;;;;4968244;28;20367;-56
2022/03/06 05:08:41;;;;;;;13.10;9.85;;;0.00;99.90;;;;;;4969378;28;20081;-56
2022/03/06 05:11:07;;;;;;;20.70;13.82;;;0.00;99.90;;;;;;4969046;28;20023;-57
2022/03/06 05:13:33;;;;;;;42.35;21.85;;;0.00;99.90;;;;;;4968906;28;20394;-56
2022/03/06 05:15:58;;;;;;;37.90;23.13;;;0.00;99.90;;;;;;4969079;28;20509;-55
2022/03/06 05:18:24;;;;;;;39.83;25.02;;;0.00;99.90;;;;;;4969403;28;20037;-57
2022/03/06 05:20:49;;;;;;;31.58;21.67;;;0.00;99.90;;;;;;4969166;28;20035;-56
2022/03/06 05:23:17;;;;;;;21.88;18.38;;;0.00;99.90;;;;;;4969672;28;20023;-56
2022/03/06 05:25:43;;;;;;;20.30;13.80;;;0.00;99.90;;;;;;4970002;28;20039;-57
2022/03/06 05:28:09;;;;;;;18.55;13.13;;;-0.10;99.90;;;;;;4969163;28;20027;-55
2022/03/06 05:30:35;;;;;;;15.00;13.23;;;-0.10;99.90;;;;;;4969277;28;20023;-56
2022/03/06 05:33:01;;;;;;;16.02;11.40;;;-0.10;99.90;;;;;;4968806;28;20031;-57
2022/03/06 05:35:26;;;;;;;16.52;13.60;;;-0.10;99.90;;;;;;4972113;28;20682;-56
2022/03/06 05:37:52;;;;;;;14.65;12.45;;;-0.10;99.90;;;;;;4972694;28;20011;-56
2022/03/06 05:40:18;;;;;;;18.98;13.95;;;-0.10;99.90;;;;;;4972865;28;20061;-56
2022/03/06 05:42:43;;;;;;;15.70;13.68;;;-0.20;99.90;;;;;;4971982;28;20047;-55
2022/03/06 05:45:09;;;;;;;15.77;13.43;;;-0.20;99.90;;;;;;4972282;28;20035;-56
2022/03/06 05:47:35;;;;;;;13.07;10.90;;;-0.20;99.90;;;;;;4972789;28;20057;-56
2022/03/06 05:50:02;;;;;;;13.15;11.20;;;-0.30;99.90;;;;;;4972708;28;20023;-56
2022/03/06 05:52:27;;;;;;;29.67;20.95;;;-0.30;99.90;;;;;;4972184;28;20058;-57
2022/03/06 05:54:53;;;;;;;67.38;36.83;;;-0.30;99.90;;;;;;4972006;28;20058;-56
2022/03/06 05:57:19;;;;;;;40.13;22.65;;;-0.30;99.90;;;;;;4971968;28;20034;-56
2022/03/06 05:59:44;;;;;;;14.10;12.05;;;-0.30;99.90;;;;;;4970949;28;20105;-55
2022/03/06 06:02:10;;;;;;;18.60;12.32;;;-0.30;99.90;;;;;;4971805;28;20019;-57
2022/03/06 06:04:35;;;;;;;17.55;11.50;;;-0.30;99.90;;;;;;4971694;28;20035;-57
2022/03/06 06:07:01;;;;;;;11.35;9.10;;;-0.30;99.90;;;;;;4971609;28;20410;-57
2022/03/06 06:09:27;;;;;;;14.88;10.70;;;-0.30;99.90;;;;;;4972298;28;20114;-55
2022/03/06 06:11:52;;;;;;;13.45;9.82;;;-0.30;99.90;;;;;;4971429;28;20031;-55
2022/03/06 06:14:18;;;;;;;13.32;9.68;;;-0.30;99.90;;;;;;4972093;28;20027;-56
2022/03/06 06:16:44;;;;;;;13.98;10.60;;;-0.30;99.90;;;;;;4971662;28;20117;-56
2022/03/06 06:19:10;;;;;;;14.77;13.20;;;-0.20;99.90;;;;;;4972086;28;20517;-56
2022/03/06 06:21:36;;;;;;;12.65;11.35;;;-0.20;99.90;;;;;;4970938;28;20023;-55
2022/03/06 06:24:01;;;;;;;13.57;10.77;;;-0.20;99.90;;;;;;4972146;28;20035;-57
2022/03/06 06:26:27;;;;;;;12.77;11.00;;;-0.10;99.90;;;;;;4971387;28;20497;-55
2022/03/06 06:28:56;;;;;;;20.25;14.55;;;-0.10;99.90;;;;;;4971951;28;20022;-56
2022/03/06 06:31:23;;;;;;;14.32;11.05;;;-0.10;99.90;;;;;;4971453;28;20026;-55
2022/03/06 06:33:50;;;;;;;11.93;10.25;;;0.00;99.90;;;;;;4971321;28;20031;-57
2022/03/06 06:36:16;;;;;;;13.82;9.98;;;0.00;99.90;;;;;;4971714;28;20084;-56
2022/03/06 06:38:42;;;;;;;15.43;12.80;;;0.00;99.90;;;;;;4971188;28;20133;-55
2022/03/06 06:41:08;;;;;;;15.05;10.23;;;0.00;99.90;;;;;;4972103;28;20027;-57
2022/03/06 06:43:33;;;;;;;10.60;9.50;;;0.10;99.90;;;;;;4970668;28;20321;-56
2022/03/06 06:45:59;;;;;;;14.27;10.00;;;0.10;99.90;;;;;;4971333;28;20039;-57
2022/03/06 06:48:25;;;;;;;10.85;9.00;;;0.10;99.90;;;;;;4971604;28;20027;-56
2022/03/06 06:50:50;;;;;;;12.93;9.63;;;0.20;99.90;;;;;;4970720;28;20533;-56
2022/03/06 06:53:16;;;;;;;12.25;10.10;;;0.20;99.90;;;;;;4971838;28;20034;-55
2022/03/06 06:55:42;;;;;;;12.00;9.85;;;0.30;99.90;;;;;;4970775;28;20560;-56
2022/03/06 06:58:07;;;;;;;13.18;10.75;;;0.40;99.90;;;;;;4985889;28;20038;-57
2022/03/06 07:00:34;;;;;;;12.18;9.98;;;0.40;99.90;;;;;;4970949;28;20063;-56
2022/03/06 07:03:00;;;;;;;12.05;10.05;;;0.50;99.90;;;;;;4970864;28;20050;-57
2022/03/06 07:05:26;;;;;;;14.65;10.77;;;0.60;99.90;;;;;;4970842;28;20079;-57
2022/03/06 07:07:53;;;;;;;12.35;10.57;;;0.60;99.90;;;;;;4971198;28;20023;-57
2022/03/06 07:10:18;;;;;;;14.20;10.68;;;0.70;99.90;;;;;;4971003;28;20058;-57
2022/03/06 07:12:51;;;;;;;23.35;15.25;;;0.80;99.90;;;;;;4970293;28;20066;-55
2022/03/06 07:15:17;;;;;;;28.23;19.63;;;0.80;99.90;;;;;;4971110;28;20114;-57
2022/03/06 07:17:42;;;;;;;41.80;24.08;;;0.90;99.90;;;;;;4970327;28;20512;-56
2022/03/06 07:20:10;;;;;;;26.73;17.85;;;0.90;99.90;;;;;;4971534;28;20039;-58
2022/03/06 07:22:36;;;;;;;14.77;11.38;;;1.10;99.90;;;;;;4970144;28;20027;-55
2022/03/06 07:25:02;;;;;;;12.93;10.77;;;1.20;99.90;;;;;;4970760;28;20039;-57
2022/03/06 07:27:28;;;;;;;19.63;13.95;;;1.20;99.90;;;;;;4970317;28;20448;-55
2022/03/06 07:29:54;;;;;;;16.83;12.07;;;1.30;99.90;;;;;;4970357;28;20127;-57
2022/03/06 07:32:19;;;;;;;26.17;14.10;;;1.40;99.90;;;;;;4970294;28;20023;-55
2022/03/06 07:34:45;;;;;;;13.75;12.48;;;1.40;99.90;;;;;;4969527;28;20026;-57
2022/03/06 07:37:11;;;;;;;14.30;11.48;;;1.50;99.90;;;;;;4969890;28;20027;-56
2022/03/06 07:39:36;;;;;;;15.80;11.60;;;1.60;99.90;;;;;;4970186;28;20031;-56
2022/03/06 07:42:02;;;;;;;12.15;11.00;;;1.70;99.90;;;;;;4969995;28;20043;-55
2022/03/06 07:44:28;;;;;;;13.43;11.80;;;1.80;99.90;;;;;;4970005;28;20090;-55
2022/03/06 07:46:56;;;;;;;17.92;11.75;;;1.90;99.90;;;;;;4970971;28;20145;-58
2022/03/06 07:49:22;;;;;;;13.23;11.48;;;2.10;99.90;;;;;;4970436;28;20122;-55
2022/03/06 07:51:47;;;;;;;15.82;10.85;;;2.20;99.90;;;;;;4969641;28;20118;-56
2022/03/06 07:54:14;;;;;;;14.57;11.70;;;2.40;99.90;;;;;;4970021;28;20050;-56
2022/03/06 07:56:45;;;;;;;16.05;11.75;;;2.50;99.90;;;;;;4968481;28;20481;-57
2022/03/06 07:59:11;;;;;;;;;;;2.70;99.90;;;;;;4970881;28;20661;-57
2022/03/06 08:01:37;;;;;;;14.32;12.38;;;2.70;99.20;;;;;;4968348;28;19938;-56
2022/03/06 08:04:02;;;;;;;12.18;10.18;;;2.80;98.40;;;;;;4984964;28;20030;-57
2022/03/06 08:06:28;;;;;;;15.48;11.50;;;3.00;97.20;;;;;;4969200;28;20118;-56
2022/03/06 08:08:53;;;;;;;16.15;12.32;;;3.00;94.00;;;;;;4969772;28;20031;-56
2022/03/06 08:11:19;;;;;;;12.48;10.88;;;3.20;95.00;;;;;;4970211;28;20030;-55
2022/03/06 08:13:45;;;;;;;12.13;10.90;;;3.40;93.70;;;;;;4969472;28;20035;-57
2022/03/06 08:16:10;;;;;;;14.45;11.57;;;3.70;92.80;;;;;;4970479;28;20093;-56
2022/03/06 08:18:36;;;;;;;11.50;9.90;;;3.90;91.30;;;;;;4969290;28;20023;-55
2022/03/06 08:21:02;;;;;;;15.27;11.77;;;4.20;90.70;;;;;;4969888;28;20035;-57
2022/03/06 08:23:28;;;;;;;15.73;12.77;;;4.20;90.00;;;;;;4968873;28;20019;-55
2022/03/06 08:25:53;;;;;;;13.32;10.75;;;4.40;89.30;;;;;;4970561;28;20390;-58
2022/03/06 08:28:19;;;;;;;12.88;11.35;;;4.50;87.90;;;;;;4969813;28;20507;-57
2022/03/06 08:30:45;;;;;;;16.92;11.82;;;4.70;87.00;;;;;;4969464;28;20042;-56
2022/03/06 08:33:11;;;;;;;16.38;13.43;;;4.90;87.30;;;;;;4969534;28;20027;-56
2022/03/06 08:35:36;;;;;;;10.75;9.70;;;5.20;84.40;;;;;;4969085;28;20015;-56
2022/03/06 08:38:02;;;;;;;11.02;9.57;;;5.30;82.90;;;;;;4969845;28;20046;-56
2022/03/06 08:40:28;;;;;;;16.30;10.65;;;5.50;81.00;;;;;;4968988;28;20522;-57
2022/03/06 08:42:53;;;;;;;10.40;9.32;;;5.50;79.00;;;;;;4969420;28;20182;-57
2022/03/06 08:45:19;;;;;;;11.23;9.70;;;5.60;79.50;;;;;;4969171;28;20113;-57
2022/03/06 08:47:45;;;;;;;10.73;9.73;;;5.90;78.90;;;;;;4969574;28;20043;-56
2022/03/06 08:50:11;;;;;;;9.45;8.38;;;6.10;75.70;;;;;;4969658;28;20106;-56
2022/03/06 08:52:36;;;;;;;14.23;9.52;;;6.30;71.80;;;;;;4969699;28;20548;-56
2022/03/06 08:55:02;;;;;;;11.27;9.60;;;6.50;71.40;;;;;;4968913;28;20035;-56
2022/03/06 08:57:28;;;;;;;12.15;10.52;;;7.20;70.70;;;;;;4969297;28;20035;-56
2022/03/06 08:59:54;;;;;;;12.57;10.90;;;7.60;68.70;;;;;;4969530;28;20149;-57
2022/03/06 09:02:20;;;;;;;13.40;10.40;;;8.20;66.00;;;;;;4965315;28;20077;-57
2022/03/06 09:04:45;;;;;;;9.80;8.90;;;8.40;64.50;;;;;;4969286;28;20027;-55
2022/03/06 09:07:11;;;;;;;16.35;12.38;;;8.40;63.50;;;;;;4968291;28;20386;-56
2022/03/06 09:09:37;;;;;;;10.70;8.95;;;8.10;62.30;;;;;;4986749;28;20726;-58
2022/03/06 09:12:03;;;;;;;9.40;8.38;;;7.80;63.30;;;;;;4972474;28;20045;-56
2022/03/06 09:14:28;;;;;;;10.02;9.02;;;7.30;63.80;;;;;;4987866;28;20046;-56
2022/03/06 09:16:54;;;;;;;40.10;17.75;;;6.80;64.60;;;;;;4972763;28;20019;-56
2022/03/06 09:19:20;;;;;;;30.13;14.18;;;6.20;64.50;;;;;;4972439;28;20437;-56
2022/03/06 09:21:46;;;;;;;35.33;15.40;;;5.70;65.50;;;;;;4971737;28;20657;-57
2022/03/06 09:24:12;;;;;;;16.15;11.15;;;5.10;63.70;;;;;;4972081;28;20665;-56
2022/03/06 09:26:37;;;;;;;8.23;7.50;;;5.00;66.90;;;;;;4987020;28;20043;-57
2022/03/06 09:29:04;;;;;;;8.57;7.68;;;4.60;66.60;;;;;;4972169;28;20382;-56
2022/03/06 09:31:30;;;;;;;10.75;7.90;;;4.60;67.50;;;;;;4972002;28;20449;-57
2022/03/06 09:33:56;;;;;;;9.70;8.70;;;4.50;67.90;;;;;;4971823;28;20038;-56
2022/03/06 09:36:22;;;;;;;9.23;8.43;;;4.60;69.00;;;;;;4972605;28;20035;-55
2022/03/06 09:38:48;;;;;;;8.95;8.15;;;4.80;69.10;;;;;;4971290;28;20158;-57
2022/03/06 09:41:16;;;;;;;9.10;8.30;;;4.90;67.90;;;;;;4972609;28;20122;-56
2022/03/06 09:43:43;;;;;;;9.68;8.48;;;5.10;66.60;;;;;;4971370;28;20039;-57
2022/03/06 09:46:12;;;;;;;8.57;7.22;;;5.10;65.00;;;;;;4971805;28;20506;-56
2022/03/06 09:48:37;;;;;;;7.80;7.00;;;5.50;66.70;;;;;;4972010;28;20035;-56
2022/03/06 09:51:04;;;;;;;7.70;6.82;;;6.20;66.30;;;;;;4971085;28;20038;-56
2022/03/06 09:53:30;;;;;;;7.80;7.10;;;6.80;63.20;;;;;;4971605;28;20050;-56
2022/03/06 09:55:56;;;;;;;7.10;6.50;;;6.80;59.10;;;;;;4971837;28;20470;-56
2022/03/06 09:58:22;;;;;;;6.68;5.97;;;6.50;57.30;;;;;;4971970;28;20449;-56
2022/03/06 10:00:47;;;;;;;6.82;6.22;;;6.20;59.40;;;;;;4970932;28;20070;-56
2022/03/06 10:03:19;;;;;;;6.95;6.25;;;5.80;57.70;;;;;;4971162;28;20038;-57
2022/03/06 10:05:44;;;;;;;;;;;5.80;59.80;;;;;;4970675;28;20077;-56
2022/03/06 10:08:27;;;;;;;8.25;7.45;;;5.70;60.10;;;;;;4971873;28;19914;-57
2022/03/06 10:10:58;;;;;;;12.55;10.93;;;5.50;62.20;;;;;;4970706;28;20494;-56
2022/03/06 10:13:33;;;;;;;8.32;7.63;;;5.50;62.90;;;;;;4971040;28;20755;-56
2022/03/06 10:16:03;;;;;;;8.73;7.90;;;4.80;62.10;;;;;;4984282;28;20130;-57
2022/03/06 10:18:31;;;;;;;7.70;7.00;;;4.70;65.10;;;;;;4969522;28;20085;-57
2022/03/06 10:21:09;;;;;;;8.60;7.57;;;4.50;64.50;;;;;;4970269;28;20046;-58
2022/03/06 10:23:35;;;;;;;8.77;7.88;;;4.30;66.70;;;;;;4970826;28;20434;-57
2022/03/06 10:26:01;;;;;;;9.30;8.35;;;4.30;66.40;;;;;;4971672;28;20027;-57
2022/03/06 10:28:27;;;;;;;9.95;8.88;;;4.30;68.40;;;;;;4970300;28;20026;-56
2022/03/06 10:30:53;;;;;;;11.05;9.48;;;4.20;67.70;;;;;;4970937;28;20039;-55
2022/03/06 10:33:20;;;;;;;10.93;9.77;;;4.20;70.30;;;;;;4969339;28;20082;-57
2022/03/06 10:35:48;;;;;;;10.93;9.93;;;4.30;72.40;;;;;;4970990;28;20035;-56
2022/03/06 10:38:30;;;;;;;15.98;11.02;;;4.40;71.80;;;;;;4970982;28;20038;-57
2022/03/06 10:41:17;;;;;;;12.35;10.65;;;4.40;72.40;;;;;;4971123;28;20117;-57
2022/03/06 10:43:43;;;;;;;10.77;9.68;;;4.50;72.70;;;;;;4969551;28;20097;-56
2022/03/06 10:46:16;;;;;;;13.40;11.60;;;4.50;73.00;;;;;;4971001;28;20030;-57
2022/03/06 10:48:52;;;;;;;13.27;11.90;;;4.60;73.00;;;;;;4970441;28;20034;-56
2022/03/06 10:51:19;;;;;;;14.57;11.23;;;4.60;72.80;;;;;;4969852;28;20043;-57
2022/03/06 10:53:54;;;;;;;12.27;11.07;;;4.60;73.50;;;;;;4970775;28;20035;-57
2022/03/06 10:56:20;;;;;;;12.02;10.85;;;4.50;72.70;;;;;;4971030;28;20015;-57
2022/03/06 10:58:47;;;;;;;11.50;10.48;;;4.40;72.90;;;;;;4971029;28;20027;-55
2022/03/06 11:01:14;;;;;;;15.73;13.30;;;4.40;73.30;;;;;;4969510;28;20035;-57
2022/03/06 11:03:40;;;;;;;11.70;10.23;;;4.50;73.50;;;;;;4971184;28;20031;-58
2022/03/06 11:06:08;;;;;;;10.75;9.75;;;4.60;72.40;;;;;;4969694;28;20771;-56
2022/03/06 11:08:35;;;;;;;12.32;9.55;;;4.60;72.20;;;;;;4970666;28;20604;-57
2022/03/06 11:11:03;;;;;;;12.60;11.18;;;4.50;72.20;;;;;;4971092;28;20116;-55
2022/03/06 11:13:31;;;;;;;12.05;10.88;;;4.50;72.70;;;;;;4970307;28;20062;-57
2022/03/06 11:15:57;;;;;;;14.38;10.80;;;4.60;72.30;;;;;;4970662;28;20030;-55
2022/03/06 11:18:24;;;;;;;17.23;12.82;;;4.60;71.60;;;;;;4970256;28;20035;-56
2022/03/06 11:20:52;;;;;;;14.60;13.15;;;4.70;71.40;;;;;;4970207;28;20031;-56
2022/03/06 11:23:46;;;;;;;13.18;11.70;;;4.80;70.30;;;;;;4970390;28;20023;-57
2022/03/06 11:26:15;;;;;;;13.02;11.73;;;4.80;70.70;;;;;;4970004;28;20038;-57
2022/03/06 11:28:55;;;;;;;11.43;10.40;;;4.70;71.50;;;;;;4969964;28;20026;-55
2022/03/06 11:31:22;;;;;;;11.23;10.15;;;4.40;70.20;;;;;;4969688;28;20047;-55
2022/03/06 11:34:03;;;;;;;11.93;9.30;;;4.40;72.30;;;;;;4984935;28;20050;-57
2022/03/06 11:36:30;;;;;;;10.05;8.65;;;4.50;71.00;;;;;;4969699;28;20054;-55
2022/03/06 11:38:56;;;;;;;9.23;8.35;;;4.30;70.30;;;;;;4970383;28;20039;-57
2022/03/06 11:41:26;;;;;;;11.02;9.90;;;4.40;71.10;;;;;;4969218;28;20081;-55
2022/03/06 11:43:54;;;;;;;10.20;9.25;;;4.30;69.10;;;;;;4970085;28;20133;-55
2022/03/06 11:46:21;;;;;;;11.38;10.18;;;4.30;69.60;;;;;;4969414;28;20086;-56
2022/03/06 11:48:47;;;;;;;10.40;9.45;;;4.30;71.30;;;;;;4969793;28;20035;-58
2022/03/06 11:51:18;;;;;;;10.98;9.93;;;4.10;69.50;;;;;;4969165;28;20026;-55
2022/03/06 11:53:56;;;;;;;;;;;4.10;70.80;;;;;;4970525;28;20394;-55
2022/03/06 11:56:39;;;;;;;12.25;11.05;;;4.20;71.00;;;;;;4969977;28;19980;-55
2022/03/06 11:59:09;;;;;;;13.98;11.70;;;4.20;71.10;;;;;;4970008;28;20039;-56
2022/03/06 12:01:40;;;;;;;12.80;11.57;;;4.20;72.30;;;;;;4969189;28;20115;-56
2022/03/06 12:04:10;;;;;;;12.70;11.35;;;4.20;71.10;;;;;;4969217;28;20070;-56
2022/03/06 12:06:48;;;;;;;12.95;10.27;;;4.20;72.50;;;;;;4969326;28;20022;-57
2022/03/06 12:09:18;;;;;;;11.88;10.75;;;4.20;72.70;;;;;;4969600;28;20512;-57
2022/03/06 12:11:45;;;;;;;11.73;10.63;;;4.10;72.10;;;;;;4969789;28;20035;-57
2022/03/06 12:14:28;;;;;;;11.65;10.27;;;4.10;74.60;;;;;;4969893;28;20034;-57
2022/03/06 12:17:04;;;;;;;11.35;10.02;;;4.00;74.10;;;;;;4969529;28;20117;-57
2022/03/06 12:19:40;;;;;;;10.20;9.23;;;3.90;75.00;;;;;;4969732;28;20135;-55
2022/03/06 12:22:34;;;;;;;11.10;10.05;;;3.90;74.60;;;;;;4969472;28;20023;-56
2022/03/06 12:25:08;;;;;;;11.80;10.70;;;3.80;76.20;;;;;;4969728;28;20110;-55
2022/03/06 12:27:36;;;;;;;12.85;11.65;;;3.90;76.10;;;;;;4969709;28;20118;-56
2022/03/06 12:30:13;;;;;;;11.98;10.48;;;3.80;74.70;;;;;;4969798;28;20029;-56
2022/03/06 12:32:40;;;;;;;15.88;12.98;;;3.80;75.40;;;;;;4969539;28;20106;-57
2022/03/06 12:35:16;;;;;;;12.18;10.85;;;3.80;76.00;;;;;;4970372;28;20030;-57
2022/03/06 12:38:09;;;;;;;14.57;10.35;;;3.90;76.70;;;;;;4967852;28;20031;-56
2022/03/06 12:40:34;;;;;;;68.03;28.13;;;3.80;76.00;;;;;;4968743;28;20027;-55
2022/03/06 12:43:06;;;;;;;19.35;14.77;;;3.80;76.20;;;;;;4970043;28;20101;-54